sensor_id;sensor_type;location;lat;lon;timestamp;temperature;humidity
42663;DHT22;44330;51.360;6.686;2022-08-04T00:01:47;24.60;99.90
42663;DHT22;44330;51.360;6.686;2022-08-04T00:09:36;24.60;99.90
42663;DHT22;44330;51.360;6.686;2022-08-04T00:12:05;24.70;99.90
42663;DHT22;44330;51.360;6.686;2022-08-04T00:14:33;24.70;99.90
42663;DHT22;44330;51.360;6.686;2022-08-04T00:17:03;24.70;99.90
42663;DHT22;44330;51.360;6.686;2022-08-04T00:19:42;24.80;99.90
42663;DHT22;44330;51.360;6.686;2022-08-04T00:22:09;24.70;99.90
42663;DHT22;44330;51.360;6.686;2022-08-04T00:24:36;24.80;99.90
42663;DHT22;44330;51.360;6.686;2022-08-04T00:27:02;24.70;99.90
42663;DHT22;44330;51.360;6.686;2022-08-04T00:29:28;24.70;99.90
42663;DHT22;44330;51.360;6.686;2022-08-04T00:31:55;24.80;99.90
42663;DHT22;44330;51.360;6.686;2022-08-04T00:34:24;24.70;99.90
42663;DHT22;44330;51.360;6.686;2022-08-04T00:36:50;24.70;99.90
42663;DHT22;44330;51.360;6.686;2022-08-04T00:39:17;24.60;99.90
42663;DHT22;44330;51.360;6.686;2022-08-04T00:41:57;24.60;99.90
42663;DHT22;44330;51.360;6.686;2022-08-04T00:47:15;24.70;99.90
42663;DHT22;44330;51.360;6.686;2022-08-04T01:00:23;24.90;99.90
42663;DHT22;44330;51.360;6.686;2022-08-04T01:03:13;24.90;99.90
42663;DHT22;44330;51.360;6.686;2022-08-04T01:08:53;24.90;99.90
42663;DHT22;44330;51.360;6.686;2022-08-04T01:14:28;24.90;99.90
42663;DHT22;44330;51.360;6.686;2022-08-04T01:17:17;25.00;99.90
42663;DHT22;44330;51.360;6.686;2022-08-04T01:30:38;25.30;99.90
42663;DHT22;44330;51.360;6.686;2022-08-04T01:33:10;25.10;99.90
42663;DHT22;44330;51.360;6.686;2022-08-04T01:35:47;25.10;99.90
42663;DHT22;44330;51.360;6.686;2022-08-04T01:38:27;25.10;99.90
42663;DHT22;44330;51.360;6.686;2022-08-04T01:40:56;25.10;99.90
42663;DHT22;44330;51.360;6.686;2022-08-04T01:43:23;25.10;99.90
42663;DHT22;44330;51.360;6.686;2022-08-04T01:45:58;25.10;99.90
42663;DHT22;44330;51.360;6.686;2022-08-04T01:48:25;25.10;99.90
42663;DHT22;44330;51.360;6.686;2022-08-04T01:50:52;25.10;99.90
42663;DHT22;44330;51.360;6.686;2022-08-04T01:53:19;25.20;99.90
42663;DHT22;44330;51.360;6.686;2022-08-04T01:55:51;25.20;99.90
42663;DHT22;44330;51.360;6.686;2022-08-04T01:58:18;25.10;99.90
42663;DHT22;44330;51.360;6.686;2022-08-04T02:00:54;25.00;99.90
42663;DHT22;44330;51.360;6.686;2022-08-04T02:03:20;24.90;99.90
42663;DHT22;44330;51.360;6.686;2022-08-04T02:05:47;24.70;99.90
42663;DHT22;44330;51.360;6.686;2022-08-04T02:21:33;24.00;99.90
42663;DHT22;44330;51.360;6.686;2022-08-04T02:24:02;24.00;99.90
42663;DHT22;44330;51.360;6.686;2022-08-04T02:26:31;24.00;99.90
42663;DHT22;44330;51.360;6.686;2022-08-04T02:29:16;23.90;99.90
42663;DHT22;44330;51.360;6.686;2022-08-04T02:32:04;24.00;99.90
42663;DHT22;44330;51.360;6.686;2022-08-04T02:37:30;24.20;99.90
42663;DHT22;44330;51.360;6.686;2022-08-04T02:39:58;24.30;99.90
42663;DHT22;44330;51.360;6.686;2022-08-04T02:42:27;24.30;99.90
42663;DHT22;44330;51.360;6.686;2022-08-04T02:44:56;24.20;99.90
42663;DHT22;44330;51.360;6.686;2022-08-04T02:47:24;24.00;99.90
42663;DHT22;44330;51.360;6.686;2022-08-04T02:49:51;23.80;99.90
42663;DHT22;44330;51.360;6.686;2022-08-04T02:52:20;23.70;99.90
42663;DHT22;44330;51.360;6.686;2022-08-04T02:54:52;23.70;99.90
42663;DHT22;44330;51.360;6.686;2022-08-04T02:57:22;23.50;99.90
42663;DHT22;44330;51.360;6.686;2022-08-04T03:00:11;23.40;99.90
42663;DHT22;44330;51.360;6.686;2022-08-04T03:03:01;23.30;99.90
42663;DHT22;44330;51.360;6.686;2022-08-04T03:08:59;23.00;99.90
42663;DHT22;44330;51.360;6.686;2022-08-04T03:25:23;22.30;99.90
42663;DHT22;44330;51.360;6.686;2022-08-04T03:28:17;22.20;99.90
42663;DHT22;44330;51.360;6.686;2022-08-04T03:34:24;21.90;1.00
42663;DHT22;44330;51.360;6.686;2022-08-04T03:37:09;21.90;1.00
42663;DHT22;44330;51.360;6.686;2022-08-04T03:42:31;21.70;99.90
42663;DHT22;44330;51.360;6.686;2022-08-04T03:57:15;21.50;99.90
42663;DHT22;44330;51.360;6.686;2022-08-04T03:59:59;21.40;99.90
42663;DHT22;44330;51.360;6.686;2022-08-04T04:05:16;21.30;63.80
42663;DHT22;44330;51.360;6.686;2022-08-04T04:07:51;21.30;99.90
42663;DHT22;44330;51.360;6.686;2022-08-04T04:15:57;21.10;27.30
42663;DHT22;44330;51.360;6.686;2022-08-04T04:18:51;21.00;99.90
42663;DHT22;44330;51.360;6.686;2022-08-04T04:21:43;21.00;99.90
42663;DHT22;44330;51.360;6.686;2022-08-04T04:24:36;20.90;99.90
42663;DHT22;44330;51.360;6.686;2022-08-04T04:27:08;20.90;99.90
42663;DHT22;44330;51.360;6.686;2022-08-04T04:38:11;20.80;1.00
42663;DHT22;44330;51.360;6.686;2022-08-04T04:41:04;20.80;99.90
42663;DHT22;44330;51.360;6.686;2022-08-04T04:44:06;20.80;99.90
42663;DHT22;44330;51.360;6.686;2022-08-04T04:52:04;20.80;99.90
42663;DHT22;44330;51.360;6.686;2022-08-04T04:54:37;20.90;99.90
42663;DHT22;44330;51.360;6.686;2022-08-04T04:57:21;21.00;99.90
42663;DHT22;44330;51.360;6.686;2022-08-04T04:59:58;21.00;99.90
42663;DHT22;44330;51.360;6.686;2022-08-04T05:02:32;20.90;99.90
42663;DHT22;44330;51.360;6.686;2022-08-04T05:11:15;21.10;56.20
42663;DHT22;44330;51.360;6.686;2022-08-04T05:13:49;21.10;99.90
42663;DHT22;44330;51.360;6.686;2022-08-04T05:16:25;21.10;99.90
42663;DHT22;44330;51.360;6.686;2022-08-04T05:19:16;21.20;99.90
42663;DHT22;44330;51.360;6.686;2022-08-04T05:22:03;21.20;1.00
42663;DHT22;44330;51.360;6.686;2022-08-04T05:24:33;21.30;1.00
42663;DHT22;44330;51.360;6.686;2022-08-04T05:27:07;21.40;1.00
42663;DHT22;44330;51.360;6.686;2022-08-04T05:29:39;21.40;1.00
42663;DHT22;44330;51.360;6.686;2022-08-04T05:32:11;21.50;1.00
42663;DHT22;44330;51.360;6.686;2022-08-04T05:34:42;21.50;1.00
42663;DHT22;44330;51.360;6.686;2022-08-04T05:37:14;21.60;99.90
42663;DHT22;44330;51.360;6.686;2022-08-04T05:39:47;21.70;99.90
42663;DHT22;44330;51.360;6.686;2022-08-04T05:42:14;21.80;63.00
42663;DHT22;44330;51.360;6.686;2022-08-04T05:44:41;21.90;99.90
42663;DHT22;44330;51.360;6.686;2022-08-04T05:47:07;21.80;99.90
42663;DHT22;44330;51.360;6.686;2022-08-04T05:49:36;22.00;1.00
42663;DHT22;44330;51.360;6.686;2022-08-04T05:52:03;22.10;99.90
42663;DHT22;44330;51.360;6.686;2022-08-04T05:54:31;22.20;99.90
42663;DHT22;44330;51.360;6.686;2022-08-04T05:56:57;22.30;99.90
42663;DHT22;44330;51.360;6.686;2022-08-04T05:59:24;22.40;99.90
42663;DHT22;44330;51.360;6.686;2022-08-04T06:01:52;22.50;1.00
42663;DHT22;44330;51.360;6.686;2022-08-04T06:04:20;22.60;99.90
42663;DHT22;44330;51.360;6.686;2022-08-04T06:06:47;22.80;99.90
42663;DHT22;44330;51.360;6.686;2022-08-04T06:09:13;22.80;1.00
42663;DHT22;44330;51.360;6.686;2022-08-04T06:11:41;23.00;99.90
42663;DHT22;44330;51.360;6.686;2022-08-04T06:14:08;23.10;99.90
42663;DHT22;44330;51.360;6.686;2022-08-04T06:16:40;23.20;4.00
42663;DHT22;44330;51.360;6.686;2022-08-04T06:19:10;23.30;1.00
42663;DHT22;44330;51.360;6.686;2022-08-04T06:21:40;23.30;99.90
42663;DHT22;44330;51.360;6.686;2022-08-04T06:24:11;23.40;99.90
42663;DHT22;44330;51.360;6.686;2022-08-04T06:26:39;23.60;99.90
42663;DHT22;44330;51.360;6.686;2022-08-04T06:29:06;23.70;99.90
42663;DHT22;44330;51.360;6.686;2022-08-04T06:31:42;23.90;99.90
42663;DHT22;44330;51.360;6.686;2022-08-04T06:34:13;24.20;99.90
42663;DHT22;44330;51.360;6.686;2022-08-04T06:36:40;24.30;99.90
42663;DHT22;44330;51.360;6.686;2022-08-04T06:39:09;24.60;1.90
42663;DHT22;44330;51.360;6.686;2022-08-04T06:41:35;24.90;1.00
42663;DHT22;44330;51.360;6.686;2022-08-04T06:44:04;25.10;1.00
42663;DHT22;44330;51.360;6.686;2022-08-04T06:46:31;25.30;99.90
42663;DHT22;44330;51.360;6.686;2022-08-04T06:48:58;25.60;99.90
42663;DHT22;44330;51.360;6.686;2022-08-04T06:51:24;25.90;99.90
42663;DHT22;44330;51.360;6.686;2022-08-04T06:53:51;26.10;99.90
42663;DHT22;44330;51.360;6.686;2022-08-04T06:56:17;26.30;99.90
42663;DHT22;44330;51.360;6.686;2022-08-04T06:58:47;26.50;73.70
42663;DHT22;44330;51.360;6.686;2022-08-04T07:01:16;26.70;36.30
42663;DHT22;44330;51.360;6.686;2022-08-04T07:03:43;27.00;1.00
42663;DHT22;44330;51.360;6.686;2022-08-04T07:06:09;27.10;1.00
42663;DHT22;44330;51.360;6.686;2022-08-04T07:08:35;27.30;1.00
42663;DHT22;44330;51.360;6.686;2022-08-04T07:11:01;27.40;1.00
42663;DHT22;44330;51.360;6.686;2022-08-04T07:13:27;27.70;99.90
42663;DHT22;44330;51.360;6.686;2022-08-04T07:15:55;27.90;99.90
42663;DHT22;44330;51.360;6.686;2022-08-04T07:18:22;28.00;99.90
42663;DHT22;44330;51.360;6.686;2022-08-04T07:20:48;28.20;99.90
42663;DHT22;44330;51.360;6.686;2022-08-04T07:23:15;28.50;99.90
42663;DHT22;44330;51.360;6.686;2022-08-04T07:25:56;28.70;99.90
42663;DHT22;44330;51.360;6.686;2022-08-04T07:28:25;28.70;99.90
42663;DHT22;44330;51.360;6.686;2022-08-04T07:30:52;29.00;99.90
42663;DHT22;44330;51.360;6.686;2022-08-04T07:33:19;29.10;99.90
42663;DHT22;44330;51.360;6.686;2022-08-04T07:35:48;29.40;99.90
42663;DHT22;44330;51.360;6.686;2022-08-04T07:38:14;29.50;99.90
42663;DHT22;44330;51.360;6.686;2022-08-04T07:40:40;29.50;99.90
42663;DHT22;44330;51.360;6.686;2022-08-04T07:43:06;29.60;99.90
42663;DHT22;44330;51.360;6.686;2022-08-04T07:45:32;29.60;99.90
42663;DHT22;44330;51.360;6.686;2022-08-04T07:47:59;29.80;99.90
42663;DHT22;44330;51.360;6.686;2022-08-04T07:50:25;29.80;99.90
42663;DHT22;44330;51.360;6.686;2022-08-04T07:52:52;29.90;99.90
42663;DHT22;44330;51.360;6.686;2022-08-04T07:55:18;30.00;99.20
42663;DHT22;44330;51.360;6.686;2022-08-04T07:57:44;30.20;99.90
42663;DHT22;44330;51.360;6.686;2022-08-04T08:00:11;30.50;96.30
42663;DHT22;44330;51.360;6.686;2022-08-04T08:02:42;30.70;93.40
42663;DHT22;44330;51.360;6.686;2022-08-04T08:05:11;31.00;82.10
42663;DHT22;44330;51.360;6.686;2022-08-04T08:07:37;31.20;60.90
42663;DHT22;44330;51.360;6.686;2022-08-04T08:10:03;31.40;49.20
42663;DHT22;44330;51.360;6.686;2022-08-04T08:12:28;31.50;35.90
42663;DHT22;44330;51.360;6.686;2022-08-04T08:14:56;31.70;28.00
42663;DHT22;44330;51.360;6.686;2022-08-04T08:17:21;31.70;19.60
42663;DHT22;44330;51.360;6.686;2022-08-04T08:19:47;31.90;15.60
42663;DHT22;44330;51.360;6.686;2022-08-04T08:22:13;32.00;12.40
42663;DHT22;44330;51.360;6.686;2022-08-04T08:24:39;32.10;6.50
42663;DHT22;44330;51.360;6.686;2022-08-04T08:27:06;32.30;1.00
42663;DHT22;44330;51.360;6.686;2022-08-04T08:29:35;32.60;1.00
42663;DHT22;44330;51.360;6.686;2022-08-04T08:32:02;32.90;1.00
42663;DHT22;44330;51.360;6.686;2022-08-04T08:34:30;33.10;1.00
42663;DHT22;44330;51.360;6.686;2022-08-04T08:37:25;33.20;1.00
42663;DHT22;44330;51.360;6.686;2022-08-04T08:39:58;33.50;1.00
42663;DHT22;44330;51.360;6.686;2022-08-04T08:48:10;34.10;1.00
42663;DHT22;44330;51.360;6.686;2022-08-04T08:51:06;34.40;1.00
42663;DHT22;44330;51.360;6.686;2022-08-04T08:56:32;34.70;1.00
42663;DHT22;44330;51.360;6.686;2022-08-04T09:07:52;34.20;1.00
42663;DHT22;44330;51.360;6.686;2022-08-04T09:12:59;34.10;1.00
42663;DHT22;44330;51.360;6.686;2022-08-04T09:15:33;34.10;99.90
42663;DHT22;44330;51.360;6.686;2022-08-04T09:20:59;33.90;99.90
42663;DHT22;44330;51.360;6.686;2022-08-04T09:23:59;33.90;99.90
42663;DHT22;44330;51.360;6.686;2022-08-04T09:29:10;34.40;99.90
42663;DHT22;44330;51.360;6.686;2022-08-04T09:32:02;34.60;99.90
42663;DHT22;44330;51.360;6.686;2022-08-04T09:37:37;35.00;99.90
42663;DHT22;44330;51.360;6.686;2022-08-04T09:41:07;35.20;99.90
42663;DHT22;44330;51.360;6.686;2022-08-04T09:48:42;36.00;99.90
42663;DHT22;44330;51.360;6.686;2022-08-04T09:54:13;36.30;99.90
42663;DHT22;44330;51.360;6.686;2022-08-04T10:00:04;36.50;99.90
42663;DHT22;44330;51.360;6.686;2022-08-04T10:02:33;36.50;99.90
42663;DHT22;44330;51.360;6.686;2022-08-04T10:05:03;36.70;99.90
42663;DHT22;44330;51.360;6.686;2022-08-04T10:13:25;36.50;99.90
42663;DHT22;44330;51.360;6.686;2022-08-04T10:25:21;36.60;99.90
42663;DHT22;44330;51.360;6.686;2022-08-04T10:28:04;36.60;99.90
42663;DHT22;44330;51.360;6.686;2022-08-04T10:30:32;36.50;99.90
42663;DHT22;44330;51.360;6.686;2022-08-04T10:35:47;36.30;99.90
42663;DHT22;44330;51.360;6.686;2022-08-04T10:38:29;36.10;99.90
42663;DHT22;44330;51.360;6.686;2022-08-04T10:41:17;36.00;99.90
42663;DHT22;44330;51.360;6.686;2022-08-04T10:46:51;36.10;99.90
42663;DHT22;44330;51.360;6.686;2022-08-04T10:49:20;35.90;99.90
42663;DHT22;44330;51.360;6.686;2022-08-04T10:52:04;35.90;99.90
42663;DHT22;44330;51.360;6.686;2022-08-04T10:54:56;35.90;99.90
42663;DHT22;44330;51.360;6.686;2022-08-04T10:57:34;35.90;99.90
42663;DHT22;44330;51.360;6.686;2022-08-04T11:05:13;36.10;99.90
42663;DHT22;44330;51.360;6.686;2022-08-04T11:07:44;36.00;99.90
42663;DHT22;44330;51.360;6.686;2022-08-04T11:10:12;36.10;99.90
42663;DHT22;44330;51.360;6.686;2022-08-04T11:12:39;35.60;99.90
42663;DHT22;44330;51.360;6.686;2022-08-04T11:15:11;35.40;99.90
42663;DHT22;44330;51.360;6.686;2022-08-04T11:17:40;35.40;99.90
42663;DHT22;44330;51.360;6.686;2022-08-04T11:20:22;35.40;99.90
42663;DHT22;44330;51.360;6.686;2022-08-04T11:23:00;35.10;99.90
42663;DHT22;44330;51.360;6.686;2022-08-04T11:25:50;35.00;99.90
42663;DHT22;44330;51.360;6.686;2022-08-04T11:31:21;35.20;99.90
42663;DHT22;44330;51.360;6.686;2022-08-04T11:34:18;35.00;99.90
42663;DHT22;44330;51.360;6.686;2022-08-04T11:39:44;34.60;99.90
42663;DHT22;44330;51.360;6.686;2022-08-04T11:42:25;34.50;99.90
42663;DHT22;44330;51.360;6.686;2022-08-04T11:47:28;34.50;99.90
42663;DHT22;44330;51.360;6.686;2022-08-04T11:50:28;34.30;99.90
42663;DHT22;44330;51.360;6.686;2022-08-04T11:52:56;34.20;99.90
42663;DHT22;44330;51.360;6.686;2022-08-04T11:55:25;34.00;99.90
42663;DHT22;44330;51.360;6.686;2022-08-04T11:57:52;33.70;99.90
42663;DHT22;44330;51.360;6.686;2022-08-04T12:00:18;33.40;99.90
42663;DHT22;44330;51.360;6.686;2022-08-04T12:03:14;33.20;99.90
42663;DHT22;44330;51.360;6.686;2022-08-04T12:14:20;32.00;99.90
42663;DHT22;44330;51.360;6.686;2022-08-04T12:16:59;32.00;99.90
42663;DHT22;44330;51.360;6.686;2022-08-04T12:19:28;31.90;99.90
42663;DHT22;44330;51.360;6.686;2022-08-04T12:21:57;31.80;99.90
42663;DHT22;44330;51.360;6.686;2022-08-04T12:24:51;31.70;99.90
42663;DHT22;44330;51.360;6.686;2022-08-04T12:27:21;31.70;99.90
42663;DHT22;44330;51.360;6.686;2022-08-04T12:29:50;31.60;99.90
42663;DHT22;44330;51.360;6.686;2022-08-04T12:37:56;31.60;99.90
42663;DHT22;44330;51.360;6.686;2022-08-04T12:40:36;31.60;99.90
42663;DHT22;44330;51.360;6.686;2022-08-04T12:43:17;31.70;99.90
42663;DHT22;44330;51.360;6.686;2022-08-04T12:45:48;31.80;99.90
42663;DHT22;44330;51.360;6.686;2022-08-04T12:48:16;31.70;99.90
42663;DHT22;44330;51.360;6.686;2022-08-04T12:50:51;31.80;99.90
42663;DHT22;44330;51.360;6.686;2022-08-04T12:53:18;31.80;99.90
42663;DHT22;44330;51.360;6.686;2022-08-04T12:55:47;32.00;99.90
42663;DHT22;44330;51.360;6.686;2022-08-04T12:58:24;32.10;99.90
42663;DHT22;44330;51.360;6.686;2022-08-04T13:00:55;32.00;99.90
42663;DHT22;44330;51.360;6.686;2022-08-04T13:03:25;32.00;99.90
42663;DHT22;44330;51.360;6.686;2022-08-04T13:05:54;31.90;99.90
42663;DHT22;44330;51.360;6.686;2022-08-04T13:08:21;31.60;99.90
42663;DHT22;44330;51.360;6.686;2022-08-04T13:10:51;31.80;99.90
42663;DHT22;44330;51.360;6.686;2022-08-04T13:13:24;32.00;99.90
42663;DHT22;44330;51.360;6.686;2022-08-04T13:15:59;32.00;99.90
42663;DHT22;44330;51.360;6.686;2022-08-04T13:18:27;31.60;99.90
42663;DHT22;44330;51.360;6.686;2022-08-04T13:20:54;31.50;99.90
42663;DHT22;44330;51.360;6.686;2022-08-04T13:23:21;31.70;99.90
42663;DHT22;44330;51.360;6.686;2022-08-04T13:25:51;31.50;99.90
42663;DHT22;44330;51.360;6.686;2022-08-04T13:28:25;31.60;99.90
42663;DHT22;44330;51.360;6.686;2022-08-04T13:30:55;31.90;99.90
42663;DHT22;44330;51.360;6.686;2022-08-04T13:33:30;32.00;99.90
42663;DHT22;44330;51.360;6.686;2022-08-04T13:35:57;32.10;99.90
42663;DHT22;44330;51.360;6.686;2022-08-04T13:38:26;32.20;99.90
42663;DHT22;44330;51.360;6.686;2022-08-04T13:40:55;32.20;99.90
42663;DHT22;44330;51.360;6.686;2022-08-04T13:43:33;32.40;99.90
42663;DHT22;44330;51.360;6.686;2022-08-04T13:46:05;32.40;99.90
42663;DHT22;44330;51.360;6.686;2022-08-04T13:48:36;32.20;99.90
42663;DHT22;44330;51.360;6.686;2022-08-04T13:51:04;32.40;99.90
42663;DHT22;44330;51.360;6.686;2022-08-04T13:53:33;32.10;99.90
42663;DHT22;44330;51.360;6.686;2022-08-04T13:56:01;32.10;99.90
42663;DHT22;44330;51.360;6.686;2022-08-04T13:58:30;31.80;99.90
42663;DHT22;44330;51.360;6.686;2022-08-04T14:03:38;32.20;99.90
42663;DHT22;44330;51.360;6.686;2022-08-04T14:06:24;32.20;99.90
42663;DHT22;44330;51.360;6.686;2022-08-04T14:08:59;32.40;99.90
42663;DHT22;44330;51.360;6.686;2022-08-04T14:11:37;32.30;99.90
42663;DHT22;44330;51.360;6.686;2022-08-04T14:14:33;32.30;99.90
42663;DHT22;44330;51.360;6.686;2022-08-04T14:17:09;32.00;99.90
42663;DHT22;44330;51.360;6.686;2022-08-04T14:19:50;31.90;99.90
42663;DHT22;44330;51.360;6.686;2022-08-04T14:27:30;31.60;99.90
42663;DHT22;44330;51.360;6.686;2022-08-04T14:30:04;31.70;99.90
42663;DHT22;44330;51.360;6.686;2022-08-04T14:32:30;31.50;99.90
42663;DHT22;44330;51.360;6.686;2022-08-04T14:34:55;31.50;99.90
42663;DHT22;44330;51.360;6.686;2022-08-04T14:37:21;31.60;99.90
42663;DHT22;44330;51.360;6.686;2022-08-04T14:39:50;31.60;99.90
42663;DHT22;44330;51.360;6.686;2022-08-04T14:42:17;31.60;99.90
42663;DHT22;44330;51.360;6.686;2022-08-04T14:47:18;31.50;99.90
42663;DHT22;44330;51.360;6.686;2022-08-04T14:49:54;31.30;99.90
42663;DHT22;44330;51.360;6.686;2022-08-04T14:52:23;31.20;99.90
42663;DHT22;44330;51.360;6.686;2022-08-04T14:54:49;31.00;99.90
42663;DHT22;44330;51.360;6.686;2022-08-04T14:57:15;30.90;99.90
42663;DHT22;44330;51.360;6.686;2022-08-04T14:59:46;30.90;99.90
42663;DHT22;44330;51.360;6.686;2022-08-04T15:02:14;30.90;99.90
42663;DHT22;44330;51.360;6.686;2022-08-04T15:04:41;30.70;99.90
42663;DHT22;44330;51.360;6.686;2022-08-04T15:07:07;30.70;99.90
42663;DHT22;44330;51.360;6.686;2022-08-04T15:09:33;30.60;99.90
42663;DHT22;44330;51.360;6.686;2022-08-04T15:11:59;30.70;99.90
42663;DHT22;44330;51.360;6.686;2022-08-04T15:14:24;30.70;99.90
42663;DHT22;44330;51.360;6.686;2022-08-04T15:16:50;30.60;99.90
42663;DHT22;44330;51.360;6.686;2022-08-04T15:19:16;30.40;99.90
42663;DHT22;44330;51.360;6.686;2022-08-04T15:21:43;30.30;99.90
42663;DHT22;44330;51.360;6.686;2022-08-04T15:24:08;30.20;99.90
42663;DHT22;44330;51.360;6.686;2022-08-04T15:26:40;30.00;99.90
42663;DHT22;44330;51.360;6.686;2022-08-04T15:29:14;30.00;99.90
42663;DHT22;44330;51.360;6.686;2022-08-04T15:31:42;29.80;99.90
42663;DHT22;44330;51.360;6.686;2022-08-04T15:34:09;29.80;99.90
42663;DHT22;44330;51.360;6.686;2022-08-04T15:36:37;29.80;99.90
42663;DHT22;44330;51.360;6.686;2022-08-04T15:47:15;29.60;99.90
42663;DHT22;44330;51.360;6.686;2022-08-04T15:49:43;29.50;99.90
42663;DHT22;44330;51.360;6.686;2022-08-04T15:52:12;29.40;99.90
42663;DHT22;44330;51.360;6.686;2022-08-04T15:54:40;29.30;99.90
42663;DHT22;44330;51.360;6.686;2022-08-04T15:57:06;29.30;99.90
42663;DHT22;44330;51.360;6.686;2022-08-04T16:00:00;29.20;99.90
42663;DHT22;44330;51.360;6.686;2022-08-04T16:12:55;29.10;99.90
42663;DHT22;44330;51.360;6.686;2022-08-04T16:18:07;29.20;99.90
42663;DHT22;44330;51.360;6.686;2022-08-04T16:20:34;29.30;99.90
42663;DHT22;44330;51.360;6.686;2022-08-04T16:23:22;29.20;99.90
42663;DHT22;44330;51.360;6.686;2022-08-04T16:25:54;29.20;99.90
42663;DHT22;44330;51.360;6.686;2022-08-04T16:28:46;29.20;99.90
42663;DHT22;44330;51.360;6.686;2022-08-04T16:31:12;29.30;99.90
42663;DHT22;44330;51.360;6.686;2022-08-04T16:33:38;29.10;99.90
42663;DHT22;44330;51.360;6.686;2022-08-04T16:36:08;29.00;99.90
42663;DHT22;44330;51.360;6.686;2022-08-04T16:39:02;29.00;99.90
42663;DHT22;44330;51.360;6.686;2022-08-04T16:41:42;29.00;99.90
42663;DHT22;44330;51.360;6.686;2022-08-04T16:46:54;28.60;99.90
42663;DHT22;44330;51.360;6.686;2022-08-04T16:49:19;28.70;99.90
42663;DHT22;44330;51.360;6.686;2022-08-04T16:51:48;28.60;99.90
42663;DHT22;44330;51.360;6.686;2022-08-04T16:54:14;28.70;99.90
42663;DHT22;44330;51.360;6.686;2022-08-04T16:56:39;28.60;99.90
42663;DHT22;44330;51.360;6.686;2022-08-04T16:59:07;28.40;99.90
42663;DHT22;44330;51.360;6.686;2022-08-04T17:01:33;28.40;99.90
42663;DHT22;44330;51.360;6.686;2022-08-04T17:03:59;28.20;99.90
42663;DHT22;44330;51.360;6.686;2022-08-04T17:06:35;28.20;99.90
42663;DHT22;44330;51.360;6.686;2022-08-04T17:09:16;28.30;99.90
42663;DHT22;44330;51.360;6.686;2022-08-04T17:11:44;28.20;99.90
42663;DHT22;44330;51.360;6.686;2022-08-04T17:14:10;28.00;99.90
42663;DHT22;44330;51.360;6.686;2022-08-04T17:16:38;28.10;99.90
42663;DHT22;44330;51.360;6.686;2022-08-04T17:19:05;28.00;99.90
42663;DHT22;44330;51.360;6.686;2022-08-04T17:21:33;28.00;99.90
42663;DHT22;44330;51.360;6.686;2022-08-04T17:24:00;27.90;99.90
42663;DHT22;44330;51.360;6.686;2022-08-04T17:26:29;28.00;99.90
42663;DHT22;44330;51.360;6.686;2022-08-04T17:28:56;28.00;99.90
42663;DHT22;44330;51.360;6.686;2022-08-04T17:31:23;28.00;99.90
42663;DHT22;44330;51.360;6.686;2022-08-04T17:33:52;28.00;99.90
42663;DHT22;44330;51.360;6.686;2022-08-04T17:36:24;28.00;99.90
42663;DHT22;44330;51.360;6.686;2022-08-04T17:38:54;27.90;99.90
42663;DHT22;44330;51.360;6.686;2022-08-04T17:41:24;27.80;99.90
42663;DHT22;44330;51.360;6.686;2022-08-04T17:43:54;27.90;99.90
42663;DHT22;44330;51.360;6.686;2022-08-04T17:46:40;27.80;99.90
42663;DHT22;44330;51.360;6.686;2022-08-04T17:54:03;27.90;99.90
42663;DHT22;44330;51.360;6.686;2022-08-04T17:56:56;27.90;99.90
42663;DHT22;44330;51.360;6.686;2022-08-04T17:59:55;27.90;99.90
42663;DHT22;44330;51.360;6.686;2022-08-04T18:02:28;27.90;99.90
42663;DHT22;44330;51.360;6.686;2022-08-04T18:04:54;27.80;99.90
42663;DHT22;44330;51.360;6.686;2022-08-04T18:07:23;27.80;99.90
42663;DHT22;44330;51.360;6.686;2022-08-04T18:09:58;27.70;99.90
42663;DHT22;44330;51.360;6.686;2022-08-04T18:12:30;27.60;99.90
42663;DHT22;44330;51.360;6.686;2022-08-04T18:14:59;27.60;99.90
42663;DHT22;44330;51.360;6.686;2022-08-04T18:19:59;27.50;99.90
42663;DHT22;44330;51.360;6.686;2022-08-04T18:22:26;27.40;99.90
42663;DHT22;44330;51.360;6.686;2022-08-04T18:24:52;27.40;99.90
42663;DHT22;44330;51.360;6.686;2022-08-04T18:27:20;27.40;99.90
42663;DHT22;44330;51.360;6.686;2022-08-04T18:29:47;27.20;1.00
42663;DHT22;44330;51.360;6.686;2022-08-04T18:32:12;27.20;99.90
42663;DHT22;44330;51.360;6.686;2022-08-04T18:34:38;27.10;99.90
42663;DHT22;44330;51.360;6.686;2022-08-04T18:37:04;27.00;99.90
42663;DHT22;44330;51.360;6.686;2022-08-04T18:39:30;27.00;1.00
42663;DHT22;44330;51.360;6.686;2022-08-04T18:41:56;26.80;1.00
42663;DHT22;44330;51.360;6.686;2022-08-04T18:44:22;26.70;1.00
42663;DHT22;44330;51.360;6.686;2022-08-04T18:46:48;26.60;1.00
42663;DHT22;44330;51.360;6.686;2022-08-04T18:49:13;26.50;1.00
42663;DHT22;44330;51.360;6.686;2022-08-04T18:51:39;26.40;1.00
42663;DHT22;44330;51.360;6.686;2022-08-04T18:54:06;26.30;1.00
42663;DHT22;44330;51.360;6.686;2022-08-04T18:56:32;26.20;1.00
42663;DHT22;44330;51.360;6.686;2022-08-04T18:59:02;26.20;1.00
42663;DHT22;44330;51.360;6.686;2022-08-04T19:01:29;26.20;1.00
42663;DHT22;44330;51.360;6.686;2022-08-04T19:03:55;26.10;1.00
42663;DHT22;44330;51.360;6.686;2022-08-04T19:06:20;26.20;1.00
42663;DHT22;44330;51.360;6.686;2022-08-04T19:08:46;26.10;1.00
42663;DHT22;44330;51.360;6.686;2022-08-04T19:11:12;26.10;1.00
42663;DHT22;44330;51.360;6.686;2022-08-04T19:13:40;26.00;1.00
42663;DHT22;44330;51.360;6.686;2022-08-04T19:16:06;26.00;1.00
42663;DHT22;44330;51.360;6.686;2022-08-04T19:18:33;25.90;1.00
42663;DHT22;44330;51.360;6.686;2022-08-04T19:20:59;25.80;1.00
42663;DHT22;44330;51.360;6.686;2022-08-04T19:23:25;25.70;1.00
42663;DHT22;44330;51.360;6.686;2022-08-04T19:25:51;25.70;1.00
42663;DHT22;44330;51.360;6.686;2022-08-04T19:28:17;25.80;4.80
42663;DHT22;44330;51.360;6.686;2022-08-04T19:30:43;25.60;10.80
42663;DHT22;44330;51.360;6.686;2022-08-04T19:33:09;25.60;19.40
42663;DHT22;44330;51.360;6.686;2022-08-04T19:35:35;25.50;28.90
42663;DHT22;44330;51.360;6.686;2022-08-04T19:38:02;25.40;37.80
42663;DHT22;44330;51.360;6.686;2022-08-04T19:40:28;25.40;51.50
42663;DHT22;44330;51.360;6.686;2022-08-04T19:42:54;25.30;59.00
42663;DHT22;44330;51.360;6.686;2022-08-04T19:45:23;25.30;65.80
42663;DHT22;44330;51.360;6.686;2022-08-04T19:47:48;25.20;75.20
42663;DHT22;44330;51.360;6.686;2022-08-04T19:50:14;25.20;91.10
42663;DHT22;44330;51.360;6.686;2022-08-04T19:52:40;25.20;93.90
42663;DHT22;44330;51.360;6.686;2022-08-04T19:55:06;25.10;99.90
42663;DHT22;44330;51.360;6.686;2022-08-04T19:57:32;25.00;99.90
42663;DHT22;44330;51.360;6.686;2022-08-04T19:59:57;24.90;99.90
42663;DHT22;44330;51.360;6.686;2022-08-04T20:02:23;24.90;99.90
42663;DHT22;44330;51.360;6.686;2022-08-04T20:04:48;24.90;99.90
42663;DHT22;44330;51.360;6.686;2022-08-04T20:07:14;24.80;99.90